Palisade, CO

8:08 PM MDT on May 26, 2017 (GMT -0600)
Rapid Creek Road | | Change Station
Active Advisory: Flood Advisory Active Notice: Flood Advisory

Elev 4980 ft 39.13 °N, 108.32 °W | Updated 2 minutes ago

Partly Cloudy
Partly Cloudy
76.7 °F
Feels Like 76 °F
N
14.0
Wind Variable Wind from WNW
Gusts 20.0 mph

Today
High -- | Low -- °F
--% Chance of Precip.
Yesterday
High -- | Low -- °F
Precip. -- in
Pressure 29.58 in
Visibility 10.0 miles
Clouds Clear
Heat Index 76 °F
Dew Point 14 °F
Humidity 9%
Rainfall 0.00 in
Snow Depth Not available.
5:51 AM 8:28 PM
New Moon, 2% visible
METAR KGJT 270153Z 26009KT 10SM CLR 24/M08 A2976 RMK AO2 SLP015 T02441078
Pressure 29.58 in
Visibility 10.0 miles
Clouds Clear
Heat Index 76 °F
Dew Point 14 °F
Humidity 9%
Rainfall 0.00 in
Snow Depth Not available.
5:51 AM 8:28 PM
New Moon, 2% visible
METAR KGJT 270153Z 26009KT 10SM CLR 24/M08 A2976 RMK AO2 SLP015 T02441078

Get Your Daily Forecast Email!

Thanks for signing up!

Be on the lookout for a verification email in your inbox.

You'll start receiving severe weather alerts in your inbox..

×

10-Day Weather Forecast

Almanac

Astronomy

May. 26, 2017 Rise Set
Actual Time
Civil Twilight
Nautical Twilight
Astronomical Twilight
Moon
Length of Visible Light
Length of Day
Tomorrow will be .
, % of the Moon is Illuminated

Today's Extremes

State Highs State Lows

Community

WunderPhotos

Category 6

Welcome to Category 6. This is the collective home for Weather Underground's featured writeups by Dr. Jeff Masters (right), Bob Henson (left), Chris Burt, and other regular contributors.

Nearby

Air Quality

  Air Quality AQ Index Pollutant
Not available.

Snow Depth

Station Depth Elevation

Earthquake Activity

City Distance Mag. Time & Date
Minimum magnitude displayed is 2.5.

Coastal Water Temperatures

Place Temperature

Stations

Nearby Weather Stations

Station Location Temp. Windchill Dew Point Humidity Wind Precip. Elev Updated Type
                   

Watches & Warnings

Flood Advisory
Issued: 10:58 AM MDT May. 26, 2017 – National Weather Service

The flood advisory continues for
the Gunnison river above Grand Junction
* until Monday evening.
* At 08 am Friday the stage was 11.4 feet.
* Bankfull stage is 8.6 feet.
* Flood stage is 13.0 feet.
* Forecast... the river will slowly fall to near 11.0 feet late
Friday and stabilize. The river will slowly fall again on
Monday.



               Fld observed forecast 6 a.M.
Location stg stg day time Sat sun Mon

Gunnison river
grand junc 13.0 11.4 Fri 08 am 11.0 10.9 10.7


Lat... Lon 3878 10825 3870 10825 3903 10862 3906 10859
      3899 10842




As